Time;durP1;ratioP1;P1;durP2;ratioP2;P2;SDS_P1;SDS_P2;PMS_P1;PMS_P2;Temp;Humidity;BMP_temperature;BMP_pressure;BME280_temperature;BME280_humidity;BME280_pressure;Samples;Min_cycle;Max_cycle;Signal;HPM_P1;HPM_P2
2022/01/04 00:01:25;;;;;;;13.50;8.93;;;;;;;9.27;76.36;99588.44;5080278;28;20177;-67
2022/01/04 00:03:51;;;;;;;15.10;8.80;;;;;;;9.52;75.39;99577.94;5080096;28;20254;-66
2022/01/04 00:06:16;;;;;;;12.60;8.90;;;;;;;9.43;75.64;99582.31;5080613;28;20168;-66
2022/01/04 00:08:41;;;;;;;14.97;9.37;;;;;;;9.20;76.28;99574.59;5080164;28;20458;-66
2022/01/04 00:11:19;;;;;;;15.60;10.77;;;;;;;9.50;75.39;99572.75;5080309;28;20185;-66
2022/01/04 00:13:44;;;;;;;13.30;9.13;;;;;;;9.23;76.83;99564.19;5079229;28;20203;-66
2022/01/04 00:16:11;;;;;;;16.10;9.20;;;;;;;9.37;75.42;99569.31;5080407;28;20498;-66
2022/01/04 00:18:37;;;;;;;17.00;9.60;;;;;;;9.38;76.06;99560.66;5080681;28;20222;-66
2022/01/04 00:21:02;;;;;;;14.93;9.43;;;;;;;9.14;76.53;99566.81;5079389;28;20715;-66
2022/01/04 00:23:28;;;;;;;13.60;9.40;;;;;;;8.89;77.18;99559.09;5079855;28;20469;-66
2022/01/04 00:25:53;;;;;;;13.70;9.43;;;;;;;8.97;77.39;99566.00;5080307;28;20168;-66
2022/01/04 00:28:19;;;;;;;13.93;9.10;;;;;;;8.71;78.07;99560.00;5079678;28;20197;-66
2022/01/04 00:30:44;;;;;;;15.43;10.10;;;;;;;9.29;75.92;99549.44;5079059;28;20402;-66
2022/01/04 00:33:11;;;;;;;20.87;12.10;;;;;;;9.20;77.13;99546.00;5080173;28;20519;-66
2022/01/04 00:35:37;;;;;;;15.00;9.90;;;;;;;9.57;75.21;99548.41;5079738;28;20180;-66
2022/01/04 00:38:03;;;;;;;18.23;11.63;;;;;;;9.03;76.75;99546.03;5079624;28;20829;-66
2022/01/04 00:40:29;;;;;;;15.53;9.60;;;;;;;8.92;77.25;99527.88;5080035;28;20404;-66
2022/01/04 00:43:01;;;;;;;15.93;9.80;;;;;;;9.20;76.51;99526.91;5079335;28;20426;-66
2022/01/04 00:45:30;;;;;;;14.77;9.63;;;;;;;9.09;77.18;99530.44;5079365;28;20165;-66
2022/01/04 00:50:22;;;;;;;13.97;9.80;;;;;;;9.27;75.86;99528.63;5079509;28;20381;-66
2022/01/04 00:52:48;;;;;;;15.60;9.10;;;;;;;9.31;75.74;99517.34;5079538;28;20169;-66
2022/01/04 00:55:14;;;;;;;21.87;9.60;;;;;;;9.28;75.95;99519.94;5079081;28;20453;-66
2022/01/04 00:57:40;;;;;;;21.20;9.77;;;;;;;9.29;75.95;99516.47;5079072;28;20662;-66
2022/01/04 01:00:06;;;;;;;17.83;12.67;;;;;;;9.25;75.12;99517.34;5079491;28;20525;-66
2022/01/04 01:02:31;;;;;;;18.10;11.20;;;;;;;9.08;76.31;99512.25;5078890;28;20799;-67
2022/01/04 01:04:57;;;;;;;15.13;10.20;;;;;;;8.84;76.74;99510.59;5079050;28;20490;-68
2022/01/04 01:07:22;;;;;;;14.60;10.20;;;;;;;8.69;77.64;99493.31;5079832;28;20176;-66
2022/01/04 01:10:26;;;;;;;15.80;10.33;;;;;;;9.23;75.85;99498.31;5079370;28;20196;-66
2022/01/04 01:12:33;;;;;;;13.73;9.70;;;;;;;8.91;76.85;99494.97;5078866;28;20200;-66
2022/01/04 01:14:58;;;;;;;14.77;10.20;;;;;;;8.84;77.39;99489.81;5078870;28;20422;-66
2022/01/04 01:17:23;;;;;;;16.07;9.90;;;;;;;9.20;76.81;99485.31;5078986;28;20183;-67
2022/01/04 01:19:50;;;;;;;16.17;9.93;;;;;;;9.15;77.05;99481.88;5079301;28;20165;-66
2022/01/04 01:22:15;;;;;;;13.80;10.00;;;;;;;9.30;76.44;99481.78;5078649;28;20200;-67
2022/01/04 01:24:40;;;;;;;17.10;10.90;;;;;;;8.85;77.79;99482.00;5078728;28;20432;-66
2022/01/04 01:27:06;;;;;;;14.57;10.20;;;;;;;9.03;77.08;99475.84;5079302;28;20199;-67
2022/01/04 01:29:31;;;;;;;19.10;9.90;;;;;;;9.32;75.78;99476.59;5078748;28;20452;-65
2022/01/04 01:31:56;;;;;;;16.10;11.00;;;;;;;9.25;75.90;99470.56;5078918;28;20168;-66
2022/01/04 01:34:23;;;;;;;15.23;10.30;;;;;;;9.40;75.43;99467.88;5079028;28;20171;-65
2022/01/04 01:36:48;;;;;;;15.33;9.80;;;;;;;9.16;76.29;99460.19;5078686;28;20218;-65
2022/01/04 01:39:14;;;;;;;18.60;10.60;;;;;;;9.16;75.95;99460.19;5079118;28;20397;-65
2022/01/04 01:41:39;;;;;;;17.63;9.30;;;;;;;9.04;76.45;99468.94;5080270;28;20168;-65
2022/01/04 01:44:04;;;;;;;19.00;9.03;;;;;;;8.96;77.04;99461.16;5079063;28;20219;-65
2022/01/04 01:46:30;;;;;;;14.00;10.30;;;;;;;8.97;76.66;99460.31;5078480;28;20169;-65
2022/01/04 01:48:55;;;;;;;20.00;11.07;;;;;;;9.02;76.15;99448.13;5079244;28;20197;-65
2022/01/04 01:51:21;;;;;;;25.53;10.80;;;;;;;9.30;75.28;99454.94;5078505;28;20173;-65
2022/01/04 01:53:46;;;;;;;15.03;10.00;;;;;;;9.15;76.56;99454.13;5077409;28;20220;-65
2022/01/04 01:56:12;;;;;;;13.43;9.20;;;;;;;9.21;75.88;99441.09;5078570;28;20771;-65
2022/01/04 01:58:37;;;;;;;13.63;9.70;;;;;;;9.11;76.47;99449.84;5079031;28;20173;-65
2022/01/04 02:01:03;;;;;;;18.60;10.80;;;;;;;8.99;76.66;99449.91;5078158;28;20171;-66
2022/01/04 02:03:28;;;;;;;11.83;10.20;;;;;;;8.94;77.42;99444.69;5078896;28;20165;-66
2022/01/04 02:05:53;;;;;;;15.80;10.83;;;;;;;9.33;75.60;99441.91;5078551;28;20211;-66
2022/01/04 02:08:19;;;;;;;15.47;10.03;;;;;;;9.17;75.75;99428.97;5078425;28;20327;-66
2022/01/04 02:10:45;;;;;;;15.57;10.23;;;;;;;9.04;76.70;99428.19;5081121;28;20161;-68
2022/01/04 02:13:11;;;;;;;21.27;9.80;;;;;;;9.37;75.98;99426.25;5090486;28;20184;-65
2022/01/04 02:15:36;;;;;;;14.83;10.47;;;;;;;9.54;75.17;99417.47;5095038;28;20252;-65
2022/01/04 02:18:01;;;;;;;14.53;10.60;;;;;;;9.42;75.37;99421.03;5096192;28;20242;-66
2022/01/04 02:20:27;;;;;;;15.83;12.13;;;;;;;9.05;76.92;99421.25;5085429;28;20214;-66
2022/01/04 02:22:54;;;;;;;13.43;9.90;;;;;;;9.68;74.95;99406.97;5084352;28;20184;-66
2022/01/04 02:25:19;;;;;;;16.27;10.80;;;;;;;9.42;76.65;99403.69;5085489;28;20164;-66
2022/01/04 02:27:45;;;;;;;16.63;10.17;;;;;;;9.28;76.05;99405.50;5084666;28;20563;-65
2022/01/04 02:30:14;;;;;;;21.27;10.50;;;;;;;8.82;78.77;99395.38;5083997;28;20247;-65
2022/01/04 02:32:40;;;;;;;17.00;11.57;;;;;;;9.44;75.95;99390.66;5085373;28;20157;-67
2022/01/04 02:35:06;;;;;;;14.13;10.40;;;;;;;9.26;76.71;99387.31;5084817;28;20729;-65
2022/01/04 02:37:32;;;;;;;14.83;10.90;;;;;;;8.85;78.09;99378.06;5084727;28;20179;-65
2022/01/04 02:39:58;;;;;;;18.23;10.20;;;;;;;8.56;78.86;99380.78;5085256;28;20183;-66
2022/01/04 02:42:23;;;;;;;17.23;11.33;;;;;;;9.34;77.60;99379.47;5084428;28;20481;-66
2022/01/04 02:44:49;;;;;;;15.97;12.43;;;;;;;9.14;77.07;99378.75;5084558;28;20169;-65
2022/01/04 02:47:14;;;;;;;17.30;12.43;;;;;;;9.30;76.89;99369.13;5084999;28;20195;-66
2022/01/04 02:49:40;;;;;;;20.10;12.50;;;;;;;9.18;76.53;99362.25;5084454;28;20246;-66
2022/01/04 02:52:06;;;;;;;23.47;13.30;;;;;;;8.90;77.88;99365.03;5084679;28;20165;-66
2022/01/04 02:54:31;;;;;;;17.13;12.60;;;;;;;9.38;76.28;99352.56;5084592;28;20216;-66
2022/01/04 02:56:57;;;;;;;16.50;11.37;;;;;;;9.26;76.75;99355.25;5084540;28;20176;-67
2022/01/04 02:59:22;;;;;;;21.33;12.70;;;;;;;9.12;77.16;99351.88;5084810;28;20196;-66
2022/01/04 03:01:48;;;;;;;16.10;11.93;;;;;;;9.26;76.75;99344.88;5084464;28;20222;-65
2022/01/04 03:04:13;;;;;;;19.50;13.17;;;;;;;9.19;77.41;99338.00;5084316;28;20157;-64
2022/01/04 03:06:40;;;;;;;18.33;13.30;;;;;;;8.99;78.09;99340.72;5084166;28;20211;-65
2022/01/04 03:09:05;;;;;;;15.47;12.70;;;;;;;9.00;77.30;99330.31;5084371;28;20433;-67
2022/01/04 03:11:32;;;;;;;21.37;12.43;;;;;;;9.08;77.34;99330.28;5084289;28;20187;-66
2022/01/04 03:13:57;;;;;;;18.43;12.40;;;;;;;9.17;76.71;99318.91;5084639;28;20245;-66
2022/01/04 03:16:22;;;;;;;16.37;12.20;;;;;;;9.12;77.88;99320.69;5084191;28;20398;-66
2022/01/04 03:19:05;;;;;;;15.80;12.60;;;;;;;9.25;76.65;99315.41;5084317;28;20181;-66
2022/01/04 03:21:31;;;;;;;19.10;12.70;;;;;;;9.15;76.95;99315.50;5084080;28;20448;-66
2022/01/04 03:23:57;;;;;;;16.50;13.50;;;;;;;9.29;77.81;99308.41;5084089;28;20390;-66
2022/01/04 03:26:22;;;;;;;20.00;14.00;;;;;;;9.16;76.86;99305.06;5081556;28;20253;-67
2022/01/04 03:28:48;;;;;;;18.90;13.40;;;;;;;9.22;76.93;99299.81;5081091;28;20466;-65
2022/01/04 03:31:14;;;;;;;16.80;13.80;;;;;;;9.27;76.94;99290.22;5080842;28;20180;-66
2022/01/04 03:33:39;;;;;;;20.07;13.13;;;;;;;8.83;79.06;99298.38;5081256;28;20191;-66
2022/01/04 03:36:05;;;;;;;17.90;13.53;;;;;;;9.17;78.24;99295.53;5080805;28;20390;-66
2022/01/04 03:38:31;;;;;;;22.23;14.73;;;;;;;8.90;78.43;99293.13;5080973;28;20177;-67
2022/01/04 03:40:56;;;;;;;21.37;13.30;;;;;;;9.00;78.23;99288.72;5081561;28;20303;-66
2022/01/04 03:43:22;;;;;;;18.50;13.37;;;;;;;8.73;79.83;99293.22;5081005;28;20177;-65
2022/01/04 03:45:48;;;;;;;20.97;13.77;;;;;;;9.16;78.05;99275.59;5080955;28;20441;-66
2022/01/04 03:48:13;;;;;;;17.67;12.77;;;;;;;8.81;78.36;99274.13;5080493;28;20199;-68
2022/01/04 03:50:40;;;;;;;18.20;14.40;;;;;;;8.57;80.10;99276.00;5080600;28;20675;-69
2022/01/04 03:53:05;;;;;;;19.83;14.17;;;;;;;9.23;77.80;99261.69;5080357;28;20177;-67
2022/01/04 03:55:30;;;;;;;19.00;14.40;;;;;;;9.09;78.15;99262.66;5080996;28;20454;-66
2022/01/04 03:57:55;;;;;;;21.97;13.23;;;;;;;9.34;77.36;99259.84;5080537;28;20200;-66
2022/01/04 04:00:21;;;;;;;21.23;14.13;;;;;;;9.05;78.09;99260.97;5079789;28;20485;-65
2022/01/04 04:02:46;;;;;;;17.60;13.27;;;;;;;8.85;78.97;99253.31;5080690;28;20203;-68
2022/01/04 04:05:13;;;;;;;18.70;13.60;;;;;;;8.70;79.26;99254.28;5080419;28;20226;-67
2022/01/04 04:07:38;;;;;;;20.37;14.10;;;;;;;8.80;80.12;99254.22;5080340;28;20168;-66
2022/01/04 04:10:04;;;;;;;24.13;15.17;;;;;;;8.97;78.86;99249.75;5080491;28;20535;-66
2022/01/04 04:12:29;;;;;;;23.07;14.63;;;;;;;8.93;78.81;99243.72;5080026;28;20228;-66
2022/01/04 04:14:55;;;;;;;24.30;14.73;;;;;;;8.89;79.07;99241.13;5080074;28;20195;-66
2022/01/04 04:17:21;;;;;;;18.90;14.70;;;;;;;8.95;79.71;99243.69;5080807;28;20245;-66
2022/01/04 04:19:46;;;;;;;18.93;14.93;;;;;;;9.02;78.14;99237.56;5079841;28;20517;-66
2022/01/04 04:22:11;;;;;;;29.40;17.33;;;;;;;9.26;78.25;99222.63;5079932;28;20169;-67
2022/01/04 04:24:37;;;;;;;20.53;14.73;;;;;;;9.18;77.90;99221.84;5080173;28;20183;-67
2022/01/04 04:27:02;;;;;;;20.80;15.93;;;;;;;9.17;77.38;99214.94;5080143;28;20180;-66
2022/01/04 04:29:27;;;;;;;21.60;15.67;;;;;;;9.30;77.31;99206.13;5079855;28;20242;-66
2022/01/04 04:31:53;;;;;;;21.30;14.33;;;;;;;9.25;77.05;99202.72;5080320;28;20262;-66
2022/01/04 04:34:18;;;;;;;21.97;14.40;;;;;;;9.15;77.79;99199.34;5079532;28;20233;-66
2022/01/04 04:36:43;;;;;;;22.17;14.70;;;;;;;9.28;76.52;99202.66;5078618;28;20187;-66
2022/01/04 04:39:08;;;;;;;20.40;14.47;;;;;;;9.03;77.96;99197.72;5080131;28;20180;-67
2022/01/04 04:41:34;;;;;;;20.00;15.53;;;;;;;8.80;78.58;99200.50;5079501;28;20169;-66
2022/01/04 04:43:59;;;;;;;25.13;17.40;;;;;;;9.23;77.25;99202.72;5079397;28;20534;-65
2022/01/04 04:46:24;;;;;;;22.43;16.83;;;;;;;8.99;78.53;99195.16;5079958;28;20253;-65
2022/01/04 04:48:50;;;;;;;21.50;16.73;;;;;;;8.71;79.05;99195.38;5079284;28;20201;-67
2022/01/04 04:51:15;;;;;;;21.10;15.77;;;;;;;9.07;78.28;99191.59;5079382;28;20181;-66
2022/01/04 04:53:40;;;;;;;23.30;17.73;;;;;;;9.24;77.15;99174.97;5079185;28;20270;-66
2022/01/04 04:56:05;;;;;;;23.73;17.57;;;;;;;9.23;77.54;99183.69;5079337;28;20192;-65
2022/01/04 04:58:31;;;;;;;30.23;17.00;;;;;;;9.11;77.92;99182.06;5079239;28;20183;-66
2022/01/04 05:00:56;;;;;;;21.90;16.00;;;;;;;8.91;79.11;99174.44;5079284;28;20479;-66
2022/01/04 05:03:22;;;;;;;22.50;15.57;;;;;;;9.27;77.70;99168.00;5079121;28;20256;-66
2022/01/04 05:05:47;;;;;;;24.40;16.10;;;;;;;9.10;77.84;99162.13;5079535;28;20168;-66
2022/01/04 05:08:12;;;;;;;22.50;15.70;;;;;;;9.16;77.40;99161.19;5079151;28;20204;-66
2022/01/04 05:10:37;;;;;;;21.80;16.30;;;;;;;9.44;76.53;99152.25;5080155;28;20542;-66
2022/01/04 05:13:03;;;;;;;23.63;15.33;;;;;;;8.82;78.60;99156.31;5080237;28;20196;-66
2022/01/04 05:15:28;;;;;;;19.77;15.50;;;;;;;9.05;77.50;99151.78;5079226;28;20183;-66
2022/01/04 05:17:54;;;;;;;20.83;16.07;;;;;;;9.14;77.18;99149.97;5081561;28;20169;-67
2022/01/04 05:20:19;;;;;;;20.67;16.10;;;;;;;8.99;78.09;99137.97;5082234;28;20519;-68
2022/01/04 05:22:44;;;;;;;21.47;16.37;;;;;;;9.16;77.73;99140.41;5084918;28;20203;-66
2022/01/04 05:25:09;;;;;;;21.33;15.60;;;;;;;9.39;76.87;99147.94;5080401;28;20180;-66
2022/01/04 05:27:35;;;;;;;21.90;16.13;;;;;;;8.99;78.17;99146.63;5079872;28;20183;-66
2022/01/04 05:30:00;;;;;;;24.33;15.73;;;;;;;8.99;78.58;99132.78;5078085;28;20196;-66
2022/01/04 05:32:26;;;;;;;21.10;15.20;;;;;;;9.13;78.33;99125.69;5078588;28;20602;-66
2022/01/04 05:34:51;;;;;;;22.53;15.87;;;;;;;9.15;78.27;99128.28;5079125;28;20264;-66
2022/01/04 05:37:16;;;;;;;24.87;16.37;;;;;;;8.92;78.24;99114.63;5078616;28;20176;-66
2022/01/04 05:39:42;;;;;;;23.93;17.80;;;;;;;8.88;78.01;99128.53;5078630;28;20177;-65
2022/01/04 05:42:08;;;;;;;21.60;16.60;;;;;;;9.13;78.48;99122.25;5078773;28;20169;-67
2022/01/04 05:44:34;;;;;;;26.03;17.13;;;;;;;9.06;77.92;99124.03;5077938;28;20259;-67
2022/01/04 05:47:00;;;;;;;26.23;16.70;;;;;;;8.90;78.13;99125.91;5078600;28;20401;-67
2022/01/04 05:49:25;;;;;;;24.10;17.80;;;;;;;9.03;78.22;99109.31;5078424;28;20512;-66
2022/01/04 05:51:50;;;;;;;23.23;16.33;;;;;;;9.21;77.98;99133.41;5078259;28;20172;-66
2022/01/04 05:54:16;;;;;;;23.93;17.30;;;;;;;9.29;76.67;99126.38;5078034;28;20228;-66
2022/01/04 05:56:41;;;;;;;23.27;15.90;;;;;;;9.19;77.62;99122.19;5078824;28;20173;-66
2022/01/04 05:59:06;;;;;;;21.93;17.23;;;;;;;9.06;77.59;99130.09;5078414;28;20172;-65
2022/01/04 06:01:32;;;;;;;23.13;16.97;;;;;;;9.27;78.17;99123.81;5078465;28;20200;-65
2022/01/04 06:03:57;;;;;;;23.63;17.50;;;;;;;9.26;78.35;99116.03;5078305;28;20169;-67
2022/01/04 06:06:22;;;;;;;29.00;17.80;;;;;;;9.25;78.22;99111.69;5078262;28;20531;-65
2022/01/04 06:08:49;;;;;;;21.90;16.63;;;;;;;9.17;78.12;99111.78;5077996;28;20239;-65
2022/01/04 06:11:30;;;;;;;33.03;18.93;;;;;;;9.01;79.23;99098.09;5078874;28;20165;-65
2022/01/04 06:16:40;;;;;;;26.03;19.03;;;;;;;8.98;78.95;99089.47;5078311;28;20413;-66
2022/01/04 06:19:05;;;;;;;26.23;18.17;;;;;;;8.90;79.81;99092.13;5078791;28;20419;-66
2022/01/04 06:21:30;;;;;;;35.10;19.63;;;;;;;9.18;78.29;99091.84;5077591;28;20226;-66
2022/01/04 06:23:57;;;;;;;29.43;19.20;;;;;;;9.22;77.65;99088.34;5078364;28;20214;-65
2022/01/04 06:26:23;;;;;;;27.37;19.10;;;;;;;8.92;79.39;99078.25;5078081;28;20169;-66
2022/01/04 06:28:48;;;;;;;23.33;18.30;;;;;;;8.86;79.16;99067.06;5077947;28;20866;-66
2022/01/04 06:31:13;;;;;;;34.93;20.67;;;;;;;9.05;79.01;99072.91;5078264;28;20515;-68
2022/01/04 06:33:39;;;;;;;31.30;19.70;;;;;;;9.20;78.32;99071.88;5077693;28;20180;-66
2022/01/04 06:36:04;;;;;;;30.87;19.37;;;;;;;8.84;80.18;99067.09;5077765;28;20179;-66
2022/01/04 06:38:29;;;;;;;32.40;20.07;;;;;;;9.17;78.50;99064.13;5078519;28;20176;-66
2022/01/04 06:40:55;;;;;;;29.00;19.90;;;;;;;9.13;78.11;99052.88;5077867;28;20543;-66
2022/01/04 06:43:20;;;;;;;25.90;19.30;;;;;;;9.00;78.68;99062.59;5077653;28;20172;-66
2022/01/04 06:45:45;;;;;;;29.20;19.60;;;;;;;8.89;80.05;99072.22;5078258;28;20226;-67
2022/01/04 06:48:11;;;;;;;23.47;17.90;;;;;;;8.89;79.45;99070.50;5077083;28;20288;-67
2022/01/04 06:50:36;;;;;;;27.07;18.40;;;;;;;8.91;79.29;99070.47;5077815;28;20231;-67
2022/01/04 06:53:01;;;;;;;27.70;20.03;;;;;;;8.98;79.76;99066.06;5078003;28;20244;-67
2022/01/04 06:55:27;;;;;;;28.90;19.10;;;;;;;9.20;78.87;99064.09;5077708;28;20195;-66
2022/01/04 06:57:52;;;;;;;31.27;19.10;;;;;;;8.96;78.92;99060.03;5077837;28;20222;-66
2022/01/04 07:00:17;;;;;;;26.43;18.40;;;;;;;8.86;80.52;99060.16;5079077;28;20173;-66
2022/01/04 07:02:43;;;;;;;25.90;18.90;;;;;;;9.36;78.33;99062.16;5080524;28;20165;-66
2022/01/04 07:05:09;;;;;;;30.00;19.47;;;;;;;9.08;79.10;99058.16;5081679;28;20542;-67
2022/01/04 07:07:34;;;;;;;32.27;19.00;;;;;;;9.03;79.69;99054.75;5081822;28;20459;-66
2022/01/04 07:09:59;;;;;;;27.23;19.40;;;;;;;9.08;79.03;99050.34;5081218;28;20323;-66
2022/01/04 07:12:25;;;;;;;28.30;19.83;;;;;;;9.10;78.85;99040.78;5081043;28;20238;-66
2022/01/04 07:14:51;;;;;;;28.27;20.03;;;;;;;9.10;79.31;99043.38;5081758;28;20487;-65
2022/01/04 07:17:16;;;;;;;27.73;19.53;;;;;;;9.15;79.11;99034.69;5080647;28;20323;-67
2022/01/04 07:19:42;;;;;;;24.00;17.93;;;;;;;9.05;79.30;99040.00;5080318;28;20527;-66
2022/01/04 07:22:07;;;;;;;30.73;18.60;;;;;;;8.99;79.38;99034.88;5081374;28;20161;-65
2022/01/04 07:24:32;;;;;;;29.97;18.83;;;;;;;9.06;79.21;99033.91;5081309;28;20667;-66
2022/01/04 07:26:58;;;;;;;28.93;18.40;;;;;;;9.33;77.96;99031.84;5081123;28;20188;-66
2022/01/04 07:29:23;;;;;;;27.50;18.80;;;;;;;9.27;77.86;99037.16;5081454;28;20204;-66
2022/01/04 07:31:49;;;;;;;26.33;18.33;;;;;;;8.86;79.36;99039.34;5081171;28;20252;-67
2022/01/04 07:34:15;;;;;;;28.33;18.77;;;;;;;8.92;79.21;99031.47;5080943;28;20165;-66
2022/01/04 07:36:40;;;;;;;23.63;17.90;;;;;;;8.93;79.04;99038.41;5081384;28;20767;-67
2022/01/04 07:39:05;;;;;;;29.00;20.00;;;;;;;9.14;79.12;99036.41;5080884;28;20177;-67
2022/01/04 07:41:31;;;;;;;27.23;18.60;;;;;;;9.29;78.27;99031.91;5080914;28;20169;-67
2022/01/04 07:43:56;;;;;;;28.17;19.77;;;;;;;9.30;77.78;99031.91;5080981;28;20181;-68
2022/01/04 07:46:23;;;;;;;28.03;19.33;;;;;;;9.51;77.29;99033.38;5080543;28;20177;-65
2022/01/04 07:48:50;;;;;;;27.40;18.33;;;;;;;9.06;78.36;99033.06;5081353;28;20482;-69
2022/01/04 07:51:16;;;;;;;32.47;20.23;;;;;;;8.81;79.52;99035.94;5088494;28;20370;-66
2022/01/04 07:53:41;;;;;;;29.00;19.07;;;;;;;8.97;78.98;99038.34;5083088;28;20463;-67
2022/01/04 07:56:07;;;;;;;28.47;19.33;;;;;;;9.00;79.52;99036.59;5080587;28;20234;-66
2022/01/04 07:58:32;;;;;;;30.03;18.87;;;;;;;9.19;78.66;99020.78;5080807;28;20422;-67
2022/01/04 08:00:58;;;;;;;32.30;20.07;;;;;;;9.65;76.94;99022.75;5080625;28;20406;-66
2022/01/04 08:03:23;;;;;;;30.83;18.87;;;;;;;9.16;77.94;99026.88;5079434;28;20200;-67
2022/01/04 08:05:48;;;;;;;28.00;18.60;;;;;;;9.15;78.43;99024.31;5080693;28;20260;-65
2022/01/04 08:08:14;;;;;;;26.53;18.70;;;;;;;9.59;77.44;99020.22;5080234;28;20528;-66
2022/01/04 08:10:39;;;;;;;25.20;18.17;;;;;;;8.87;79.01;99011.63;5079478;28;20181;-66
2022/01/04 08:13:05;;;;;;;30.87;18.90;;;;;;;9.42;77.66;99012.69;5079523;28;20192;-68
2022/01/04 08:15:30;;;;;;;14.57;11.20;;;;;;;12.07;77.37;98996.44;5079665;28;20259;-61
2022/01/04 08:17:56;;;;;;;21.70;14.20;;;;;;;12.70;66.62;98993.94;5079940;28;20173;-63
2022/01/04 08:20:21;;;;;;;19.60;13.30;;;;;;;13.41;66.51;98978.00;5079974;28;20203;-65
2022/01/04 08:22:47;;;;;;;18.43;13.00;;;;;;;14.15;64.02;98981.75;5074131;28;20180;-61
2022/01/04 08:25:12;;;;;;;20.40;13.70;;;;;;;14.10;63.35;98972.34;5080219;28;20431;-63
2022/01/04 08:27:38;;;;;;;19.43;14.77;;;;;;;12.40;64.36;98978.16;5080702;28;20180;-62
2022/01/04 08:30:06;;;;;;;20.10;15.60;;;;;;;12.87;66.42;98977.78;5080006;28;20636;-60
2022/01/04 08:32:31;;;;;;;19.30;15.00;;;;;;;13.30;63.31;98975.66;5079679;28;20411;-61
2022/01/04 08:34:56;;;;;;;19.70;15.20;;;;;;;12.16;67.05;98957.91;5079972;28;20698;-62
2022/01/04 08:37:22;;;;;;;21.53;14.50;;;;;;;12.40;66.77;98962.50;5079303;28;20191;-61
2022/01/04 08:39:47;;;;;;;22.93;14.63;;;;;;;13.88;62.86;98965.19;5079736;28;20173;-63
2022/01/04 08:42:13;;;;;;;19.27;14.87;;;;;;;12.71;65.83;98961.66;5080207;28;20197;-62
2022/01/04 08:44:39;;;;;;;22.67;14.27;;;;;;;13.50;64.09;98950.69;5079362;28;20184;-62
2022/01/04 08:47:07;;;;;;;18.90;15.37;;;;;;;12.19;64.86;98955.22;5079295;28;20419;-62
2022/01/04 08:49:34;;;;;;;29.43;14.80;;;;;;;12.92;65.83;98941.91;5079582;28;20418;-63
2022/01/04 08:51:59;;;;;;;22.40;14.43;;;;;;;13.30;63.03;98942.53;5079382;28;20415;-63
2022/01/04 08:54:25;;;;;;;23.33;14.67;;;;;;;13.52;62.51;98934.03;5078958;28;20463;-63
2022/01/04 08:56:51;;;;;;;22.30;15.03;;;;;;;13.58;62.30;98939.06;5080275;28;20169;-62
2022/01/04 08:59:17;;;;;;;21.00;16.00;;;;;;;11.74;67.16;98951.06;5079008;28;20169;-62
2022/01/04 09:01:42;;;;;;;17.20;14.17;;;;;;;13.21;64.48;98940.19;5079664;28;20650;-72
2022/01/04 09:04:07;;;;;;;18.17;14.00;;;;;;;13.57;63.07;98939.13;5079398;28;20193;-64
2022/01/04 09:06:34;;;;;;;16.80;14.90;;;;;;;11.93;66.42;98941.03;5078884;28;20173;-60
2022/01/04 09:08:59;;;;;;;21.20;15.83;;;;;;;12.65;65.57;98933.09;5079150;28;20593;-64
2022/01/04 09:11:25;;;;;;;19.00;16.23;;;;;;;11.14;69.92;98931.59;5079543;28;20404;-71
2022/01/04 09:13:55;;;;;;;19.47;16.60;;;;;;;10.09;73.91;98937.91;5078925;28;20173;-69
2022/01/04 09:18:43;;;;;;;23.67;17.20;;;;;;;9.85;75.72;98928.78;5080322;28;20255;-70
2022/01/04 09:19:08;;;;;;;22.63;18.07;;;;;;;10.05;75.11;98927.56;5078910;28;20419;-67
2022/01/04 09:21:34;;;;;;;23.70;17.83;;;;;;;10.14;75.71;98919.59;5078675;28;20804;-69
2022/01/04 09:24:00;;;;;;;24.30;17.20;;;;;;;9.60;76.89;98928.31;5077873;28;20191;-70
2022/01/04 09:26:27;;;;;;;22.40;17.00;;;;;;;9.27;78.84;98927.94;5078551;28;20238;-68
2022/01/04 09:28:53;;;;;;;21.80;16.97;;;;;;;9.61;77.28;98927.44;5078522;28;20472;-67
2022/01/04 09:31:24;;;;;;;22.40;18.30;;;;;;;9.68;76.98;98931.63;5079020;28;20645;-67
2022/01/04 09:33:51;;;;;;;21.17;17.40;;;;;;;9.26;78.12;98926.22;5078262;28;20415;-67
2022/01/04 09:36:16;;;;;;;24.80;17.60;;;;;;;9.58;77.03;98923.13;5078471;28;20394;-68
2022/01/04 09:38:41;;;;;;;23.53;18.37;;;;;;;9.46;77.69;98925.03;5079206;28;20374;-67
2022/01/04 09:41:07;;;;;;;24.80;17.67;;;;;;;9.06;79.49;98918.69;5078342;28;20422;-71
2022/01/04 09:43:32;;;;;;;21.00;17.57;;;;;;;9.52;78.10;98920.59;5078007;28;20279;-67
2022/01/04 09:45:58;;;;;;;26.13;17.97;;;;;;;9.61;77.50;98917.88;5078461;28;20534;-67
2022/01/04 09:48:23;;;;;;;21.20;18.17;;;;;;;9.57;78.16;98928.34;5078004;28;20196;-67
2022/01/04 09:50:49;;;;;;;22.67;18.20;;;;;;;9.52;78.30;98930.16;5078426;28;20534;-66
2022/01/04 09:53:19;;;;;;;22.23;16.50;;;;;;;9.39;78.62;98934.69;5078268;28;20224;-66
2022/01/04 09:55:47;;;;;;;28.83;18.90;;;;;;;9.64;77.56;98929.97;5079171;28;20177;-67
2022/01/04 09:58:12;;;;;;;23.53;16.80;;;;;;;9.65;77.69;98934.28;5081100;28;20425;-67
2022/01/04 10:00:37;;;;;;;23.97;17.57;;;;;;;9.54;77.65;98933.59;5080650;28;20843;-66
2022/01/04 10:03:16;;;;;;;19.30;16.30;;;;;;;9.77;76.51;98923.69;5078133;28;20172;-66
2022/01/04 10:05:42;;;;;;;20.70;15.13;;;;;;;9.41;79.00;98927.72;5077408;28;20192;-67
2022/01/04 10:08:09;;;;;;;22.27;17.00;;;;;;;9.27;79.43;98925.34;5078098;28;20804;-67
2022/01/04 10:10:36;;;;;;;24.17;17.13;;;;;;;9.73;77.93;98924.63;5078382;28;20173;-67
2022/01/04 10:13:10;;;;;;;22.30;16.73;;;;;;;9.53;77.83;98919.72;5077295;28;20386;-67
2022/01/04 10:15:47;;;;;;;21.40;16.37;;;;;;;9.84;77.20;98915.78;5078207;28;20415;-67
2022/01/04 10:18:12;;;;;;;19.80;16.67;;;;;;;9.27;79.35;98920.97;5077846;28;20385;-67
2022/01/04 10:20:38;;;;;;;20.30;16.27;;;;;;;9.19;79.44;98909.84;5077846;28;20772;-68
2022/01/04 10:23:18;;;;;;;24.43;16.87;;;;;;;9.34;78.37;98898.34;5077947;28;20164;-72
2022/01/04 10:25:47;;;;;;;22.67;15.90;;;;;;;9.44;78.29;98899.94;5078027;28;20484;-66
2022/01/04 10:28:12;;;;;;;23.10;16.50;;;;;;;9.53;77.89;98892.88;5077918;28;20681;-66
2022/01/04 10:30:45;;;;;;;20.53;16.87;;;;;;;9.37;79.09;98900.06;5077099;28;20510;-66
2022/01/04 10:33:12;;;;;;;24.40;17.50;;;;;;;9.20;80.77;98902.88;5078018;28;20165;-67
2022/01/04 10:35:43;;;;;;;23.60;16.70;;;;;;;9.41;79.97;98902.56;5079531;28;20386;-66
2022/01/04 10:38:18;;;;;;;22.97;17.80;;;;;;;9.36;80.72;98893.13;5082364;28;20789;-69
2022/01/04 10:41:00;;;;;;;22.30;17.03;;;;;;;9.23;81.33;98892.47;5081907;28;20687;-68
2022/01/04 10:43:30;;;;;;;20.70;11.83;;;;;;;8.16;82.56;98891.16;5074573;28;20445;-66
2022/01/04 10:45:56;;;;;;;12.50;7.60;;;;;;;8.25;80.14;98888.47;5076122;28;20537;-66
2022/01/04 10:48:27;;;;;;;8.60;4.80;;;;;;;7.95;76.99;98884.44;5063756;28;20465;-65
2022/01/04 10:50:57;;;;;;;7.97;5.30;;;;;;;8.15;77.06;98873.00;5064062;28;20463;-68
2022/01/04 10:53:29;;;;;;;14.23;5.67;;;;;;;8.33;78.12;98870.19;5081269;28;20771;-65
2022/01/04 10:56:00;;;;;;;10.70;5.47;;;;;;;8.62;76.66;98866.44;5081450;28;20421;-65
2022/01/04 10:58:37;;;;;;;11.10;6.70;;;;;;;8.58;77.07;98865.59;5081487;28;21262;-63
2022/01/04 11:01:18;;;;;;;11.73;7.57;;;;;;;9.19;76.84;98860.44;5065365;28;20705;-65
2022/01/04 11:03:45;;;;;;;13.50;8.10;;;;;;;9.22;77.61;98860.38;5061533;28;20394;-65
2022/01/04 11:06:15;;;;;;;10.20;8.60;;;;;;;8.97;79.15;98870.31;5061332;28;20477;-65
2022/01/04 11:08:42;;;;;;;16.97;9.80;;;;;;;8.95;80.46;98856.44;5061180;28;20464;-65
2022/01/04 11:11:08;;;;;;;20.53;13.33;;;;;;;8.25;82.89;98859.03;5061503;28;20390;-65
2022/01/04 11:13:33;;;;;;;18.03;13.00;;;;;;;8.38;84.08;98863.22;5061187;28;20424;-63
2022/01/04 11:16:01;;;;;;;18.80;13.73;;;;;;;8.39;84.18;98851.09;5061191;28;20489;-65
2022/01/04 11:18:27;;;;;;;17.77;13.57;;;;;;;8.57;84.13;98861.28;5080183;28;20233;-64
2022/01/04 11:20:54;;;;;;;21.27;12.87;;;;;;;8.35;83.59;98844.19;5080118;28;20474;-64
2022/01/04 11:23:23;;;;;;;16.20;11.20;;;;;;;7.88;84.70;98844.72;5080839;28;20662;-64
2022/01/04 11:25:49;;;;;;;11.00;8.70;;;;;;;8.31;82.79;98847.72;5081470;28;20402;-64
2022/01/04 11:28:15;;;;;;;12.27;8.13;;;;;;;8.21;82.54;98853.03;5080217;28;20422;-64